Time,TemperatureF,DewpointF,PressureIn,WindDirection,WindDirectionDegrees,WindSpeedMPH,WindSpeedGustMPH,Humidity,HourlyPrecipIn,Conditions,Clouds,dailyrainin,SoftwareType,DateUTC
2013-01-05 00:01:00,25.7,21.0,30.36,SW,227,0.0,0.0,82,0.00,,,0.00,Wunderground v.1.15,2013-01-05 06:01:00,
2013-01-05 00:05:00,25.6,20.9,30.36,SW,227,0.0,0.0,82,0.00,,,0.00,Wunderground v.1.15,2013-01-05 06:05:00,
2013-01-05 00:10:00,25.4,20.7,30.36,SW,227,0.0,0.0,82,0.00,,,0.00,Wunderground v.1.15,2013-01-05 06:10:00,
2013-01-05 00:15:00,25.3,20.6,30.35,SW,227,0.0,0.0,82,0.00,,,0.00,Wunderground v.1.15,2013-01-05 06:15:00,
2013-01-05 00:20:00,25.0,20.3,30.35,SW,227,0.0,0.0,82,0.00,,,0.00,Wunderground v.1.15,2013-01-05 06:20:00,
2013-01-05 00:26:00,24.8,20.1,30.35,SW,227,0.0,0.0,82,0.00,,,0.00,Wunderground v.1.15,2013-01-05 06:26:00,
2013-01-05 00:31:00,24.7,20.0,30.35,SW,227,0.0,0.0,82,0.00,,,0.00,Wunderground v.1.15,2013-01-05 06:31:00,
2013-01-05 00:40:00,24.5,20.1,30.35,SW,227,0.0,0.0,83,0.00,,,0.00,Wunderground v.1.15,2013-01-05 06:40:00,
2013-01-05 00:45:00,24.4,20.0,30.35,SW,227,0.0,0.0,83,0.00,,,0.00,Wunderground v.1.15,2013-01-05 06:45:00,
2013-01-05 00:50:00,24.2,19.8,30.35,SW,227,0.0,0.0,83,0.00,,,0.00,Wunderground v.1.15,2013-01-05 06:50:00,
2013-01-05 00:56:00,24.2,19.8,30.35,SW,227,0.0,0.0,83,0.00,,,0.00,Wunderground v.1.15,2013-01-05 06:56:00,
2013-01-05 01:05:00,24.1,19.7,30.34,SW,227,0.0,0.0,83,0.00,,,0.00,Wunderground v.1.15,2013-01-05 07:05:00,
2013-01-05 01:10:00,24.1,20.0,30.34,SW,227,0.0,0.0,84,0.00,,,0.00,Wunderground v.1.15,2013-01-05 07:10:00,
2013-01-05 01:15:00,24.1,20.0,30.33,SW,227,0.0,0.0,84,0.00,,,0.00,Wunderground v.1.15,2013-01-05 07:15:00,
2013-01-05 01:20:00,24.1,20.0,30.33,SW,227,0.0,0.0,84,0.00,,,0.00,Wunderground v.1.15,2013-01-05 07:20:00,
2013-01-05 01:25:00,24.1,20.0,30.33,SW,227,0.0,0.0,84,0.00,,,0.00,Wunderground v.1.15,2013-01-05 07:25:00,
2013-01-05 01:31:00,24.1,20.0,30.33,SW,227,0.0,0.0,84,0.00,,,0.00,Wunderground v.1.15,2013-01-05 07:31:00,
2013-01-05 01:36:00,24.2,20.3,30.33,SW,227,0.0,0.0,85,0.00,,,0.00,Wunderground v.1.15,2013-01-05 07:36:00,
2013-01-05 01:45:00,24.2,20.3,30.33,SW,227,0.0,0.0,85,0.00,,,0.00,Wunderground v.1.15,2013-01-05 07:45:00,
2013-01-05 01:50:00,24.2,20.3,30.33,SW,227,0.0,0.0,85,0.00,,,0.00,Wunderground v.1.15,2013-01-05 07:50:00,
2013-01-05 01:55:00,24.2,20.1,30.33,SW,227,0.0,0.0,84,0.00,,,0.00,Wunderground v.1.15,2013-01-05 07:55:00,
2013-01-05 02:00:00,24.1,20.0,30.33,SW,227,0.0,0.0,84,0.00,,,0.00,Wunderground v.1.15,2013-01-05 08:00:00,
2013-01-05 02:05:00,24.1,20.2,30.33,SW,227,0.0,0.0,85,0.00,,,0.00,Wunderground v.1.15,2013-01-05 08:05:00,
2013-01-05 02:10:00,24.1,20.2,30.33,SW,227,0.0,0.0,85,0.00,,,0.00,Wunderground v.1.15,2013-01-05 08:10:00,
2013-01-05 02:16:00,24.1,20.2,30.34,SW,227,0.0,0.0,85,0.00,,,0.00,Wunderground v.1.15,2013-01-05 08:16:00,
2013-01-05 02:25:00,23.9,19.8,30.34,SW,227,0.0,0.0,84,0.00,,,0.00,Wunderground v.1.15,2013-01-05 08:25:00,
2013-01-05 02:30:00,23.8,19.7,30.34,SW,227,0.0,0.0,84,0.00,,,0.00,Wunderground v.1.15,2013-01-05 08:30:00,
2013-01-05 02:35:00,23.6,19.8,30.34,SW,227,0.0,0.0,85,0.00,,,0.00,Wunderground v.1.15,2013-01-05 08:35:00,
2013-01-05 02:41:00,23.6,19.8,30.34,SW,227,0.0,0.0,85,0.00,,,0.00,Wunderground v.1.15,2013-01-05 08:41:00,
2013-01-05 02:45:00,23.5,19.7,30.34,SW,227,0.0,0.0,85,0.00,,,0.00,Wunderground v.1.15,2013-01-05 08:45:00,
2013-01-05 02:51:00,23.3,19.5,30.34,SW,227,0.0,0.0,85,0.00,,,0.00,Wunderground v.1.15,2013-01-05 08:51:00,
2013-01-05 02:56:00,23.2,19.4,30.34,SW,227,0.0,0.0,85,0.00,,,0.00,Wunderground v.1.15,2013-01-05 08:56:00,
2013-01-05 03:05:00,22.9,19.1,30.34,SW,227,0.0,0.0,85,0.00,,,0.00,Wunderground v.1.15,2013-01-05 09:05:00,
2013-01-05 03:10:00,23.0,19.4,30.34,SW,227,0.0,0.0,86,0.00,,,0.00,Wunderground v.1.15,2013-01-05 09:10:00,
2013-01-05 03:15:00,23.2,19.6,30.33,SW,227,0.0,0.0,86,0.00,,,0.00,Wunderground v.1.15,2013-01-05 09:15:00,
2013-01-05 03:20:00,23.0,19.4,30.33,SW,227,0.0,0.0,86,0.00,,,0.00,Wunderground v.1.15,2013-01-05 09:20:00,
2013-01-05 03:26:00,23.0,19.4,30.33,SW,227,0.0,0.0,86,0.00,,,0.00,Wunderground v.1.15,2013-01-05 09:26:00,
2013-01-05 03:30:00,23.2,19.6,30.34,SW,227,0.0,0.0,86,0.00,,,0.00,Wunderground v.1.15,2013-01-05 09:30:00,
2013-01-05 03:36:00,23.0,19.4,30.34,SW,227,0.0,0.0,86,0.00,,,0.00,Wunderground v.1.15,2013-01-05 09:36:00,
2013-01-05 03:41:00,23.0,19.4,30.34,SW,227,0.0,0.0,86,0.00,,,0.00,Wunderground v.1.15,2013-01-05 09:41:00,
2013-01-05 03:50:00,23.3,19.7,30.34,SW,227,0.0,0.0,86,0.00,,,0.00,Wunderground v.1.15,2013-01-05 09:50:00,
2013-01-05 03:55:00,23.3,20.0,30.34,SW,227,0.0,0.0,87,0.00,,,0.00,Wunderground v.1.15,2013-01-05 09:55:00,
2013-01-05 04:00:00,23.5,20.2,30.33,SW,227,0.0,0.0,87,0.00,,,0.00,Wunderground v.1.15,2013-01-05 10:00:00,
2013-01-05 04:05:00,23.8,20.5,30.33,SW,227,0.0,0.0,87,0.00,,,0.00,Wunderground v.1.15,2013-01-05 10:05:00,
2013-01-05 04:11:00,24.1,20.8,30.33,SW,227,0.0,0.0,87,0.00,,,0.00,Wunderground v.1.15,2013-01-05 10:11:00,
2013-01-05 04:16:00,24.2,20.9,30.35,SW,227,0.0,0.0,87,0.00,,,0.00,Wunderground v.1.15,2013-01-05 10:16:00,
2013-01-05 04:21:00,24.5,21.5,30.35,SW,227,0.0,0.0,88,0.00,,,0.00,Wunderground v.1.15,2013-01-05 10:21:00,
2013-01-05 04:30:00,24.8,21.8,30.34,SW,227,0.0,0.0,88,0.00,,,0.00,Wunderground v.1.15,2013-01-05 10:30:00,
2013-01-05 04:35:00,25.0,21.9,30.34,SW,227,0.0,0.0,88,0.00,,,0.00,Wunderground v.1.15,2013-01-05 10:35:00,
2013-01-05 04:40:00,25.3,22.2,30.34,SW,227,0.0,0.0,88,0.00,,,0.00,Wunderground v.1.15,2013-01-05 10:40:00,
2013-01-05 04:45:00,25.8,23.0,30.34,SW,227,0.0,0.0,89,0.00,,,0.00,Wunderground v.1.15,2013-01-05 10:45:00,
2013-01-05 04:50:00,26.3,23.2,30.34,SW,227,0.0,0.0,88,0.00,,,0.00,Wunderground v.1.15,2013-01-05 10:50:00,
2013-01-05 04:56:00,26.6,23.5,30.34,SW,227,0.0,0.0,88,0.00,,,0.00,Wunderground v.1.15,2013-01-05 10:56:00,
2013-01-05 05:01:00,26.7,23.6,30.34,SW,227,0.0,0.0,88,0.00,,,0.00,Wunderground v.1.15,2013-01-05 11:01:00,
2013-01-05 05:10:00,27.2,24.1,30.34,SW,227,0.0,0.0,88,0.00,,,0.00,Wunderground v.1.15,2013-01-05 11:10:00,
2013-01-05 05:15:00,27.5,24.4,30.34,SW,227,0.0,0.0,88,0.00,,,0.00,Wunderground v.1.15,2013-01-05 11:15:00,
2013-01-05 05:21:00,27.6,24.5,30.34,SW,227,0.0,0.0,88,0.00,,,0.00,Wunderground v.1.15,2013-01-05 11:21:00,
2013-01-05 05:31:00,28.1,25.0,30.35,SW,227,0.0,0.0,88,0.00,,,0.00,Wunderground v.1.15,2013-01-05 11:31:00,
2013-01-05 05:36:00,28.4,25.3,30.35,SW,227,0.0,0.0,88,0.00,,,0.00,Wunderground v.1.15,2013-01-05 11:36:00,
2013-01-05 05:45:00,28.8,25.4,30.35,SW,227,0.0,0.0,87,0.00,,,0.00,Wunderground v.1.15,2013-01-05 11:45:00,
2013-01-05 05:55:00,29.1,25.4,30.35,SW,227,0.0,0.0,86,0.00,,,0.00,Wunderground v.1.15,2013-01-05 11:55:00,
2013-01-05 06:00:00,29.1,25.4,30.35,SW,227,0.0,0.0,86,0.00,,,0.00,Wunderground v.1.15,2013-01-05 12:00:00,
2013-01-05 06:06:00,29.4,25.7,30.35,ESE,113,0.0,0.0,86,0.00,,,0.00,Wunderground v.1.15,2013-01-05 12:06:00,
2013-01-05 06:15:00,30.3,25.5,30.35,SSW,195,0.0,0.0,82,0.00,,,0.00,Wunderground v.1.15,2013-01-05 12:15:00,
2013-01-05 06:25:00,30.7,25.6,30.35,SSW,195,0.0,0.0,81,0.00,,,0.00,Wunderground v.1.15,2013-01-05 12:25:00,
2013-01-05 06:30:00,31.0,25.9,30.35,SSW,195,0.0,0.0,81,0.00,,,0.00,Wunderground v.1.15,2013-01-05 12:30:00,
2013-01-05 06:35:00,31.3,25.2,30.35,SSW,195,0.0,0.0,78,0.00,,,0.00,Wunderground v.1.15,2013-01-05 12:35:00,
2013-01-05 06:40:00,31.5,25.7,30.35,SSW,195,0.0,0.0,79,0.00,,,0.00,Wunderground v.1.15,2013-01-05 12:40:00,
2013-01-05 06:46:00,31.6,25.5,30.35,SSW,195,0.0,0.0,78,0.00,,,0.00,Wunderground v.1.15,2013-01-05 12:46:00,
2013-01-05 06:51:00,31.6,25.5,30.35,SSW,195,0.0,0.0,78,0.00,,,0.00,Wunderground v.1.15,2013-01-05 12:51:00,
2013-01-05 07:00:00,31.9,25.2,30.35,SSW,195,0.0,0.0,76,0.00,,,0.00,Wunderground v.1.15,2013-01-05 13:00:00,
2013-01-05 07:10:00,32.2,25.2,30.35,SSW,195,0.0,0.0,75,0.00,,,0.00,Wunderground v.1.15,2013-01-05 13:10:00,
2013-01-05 07:15:00,32.2,25.2,30.34,SSW,195,0.0,0.0,75,0.00,,,0.00,Wunderground v.1.15,2013-01-05 13:15:00,
2013-01-05 07:21:00,32.2,25.5,30.34,SSW,195,0.0,0.0,76,0.00,,,0.00,Wunderground v.1.15,2013-01-05 13:21:00,
2013-01-05 07:26:00,32.1,25.7,30.34,SSW,195,0.0,0.0,77,0.00,,,0.00,Wunderground v.1.15,2013-01-05 13:26:00,
2013-01-05 07:35:00,31.9,25.5,30.34,SSW,195,0.0,0.0,77,0.00,,,0.00,Wunderground v.1.15,2013-01-05 13:35:00,
2013-01-05 07:40:00,31.9,25.5,30.34,SSW,195,0.0,0.0,77,0.00,,,0.00,Wunderground v.1.15,2013-01-05 13:40:00,
2013-01-05 07:45:00,32.1,25.7,30.35,SSW,195,0.0,0.0,77,0.00,,,0.00,Wunderground v.1.15,2013-01-05 13:45:00,
2013-01-05 07:50:00,32.2,26.1,30.35,SSW,195,0.0,0.0,78,0.00,,,0.00,Wunderground v.1.15,2013-01-05 13:50:00,
2013-01-05 07:55:00,32.2,26.1,30.35,SSW,195,0.0,0.0,78,0.00,,,0.00,Wunderground v.1.15,2013-01-05 13:55:00,
2013-01-05 08:00:00,32.2,26.4,30.35,SSW,195,0.0,0.0,79,0.00,,,0.00,Wunderground v.1.15,2013-01-05 14:00:00,
2013-01-05 08:05:00,32.2,26.1,30.35,SSW,195,0.0,0.0,78,0.00,,,0.00,Wunderground v.1.15,2013-01-05 14:05:00,
2013-01-05 08:15:00,32.7,26.6,30.35,SSW,195,0.0,0.0,78,0.00,,,0.00,Wunderground v.1.15,2013-01-05 14:15:00,
2013-01-05 08:20:00,32.9,26.5,30.35,SSW,195,0.0,0.0,77,0.00,,,0.00,Wunderground v.1.15,2013-01-05 14:20:00,
2013-01-05 08:25:00,33.1,26.4,30.35,SSW,195,0.0,0.0,76,0.00,,,0.00,Wunderground v.1.15,2013-01-05 14:25:00,
2013-01-05 08:30:00,33.4,26.6,30.35,SSE,162,0.0,0.0,76,0.00,,,0.00,Wunderground v.1.15,2013-01-05 14:30:00,
2013-01-05 08:35:00,33.7,26.9,30.35,SW,221,1.0,1.0,76,0.00,,,0.00,Wunderground v.1.15,2013-01-05 14:35:00,
2013-01-05 08:40:00,34.0,26.9,30.35,South,171,1.0,1.0,75,0.00,,,0.00,Wunderground v.1.15,2013-01-05 14:40:00,
2013-01-05 08:46:00,34.3,27.2,30.35,South,191,1.0,1.0,75,0.00,,,0.00,Wunderground v.1.15,2013-01-05 14:46:00,
2013-01-05 08:51:00,34.7,27.6,30.35,South,175,1.0,1.0,75,0.00,,,0.00,Wunderground v.1.15,2013-01-05 14:51:00,
2013-01-05 09:00:00,35.5,28.4,30.34,SSE,153,1.0,1.0,75,0.00,,,0.00,Wunderground v.1.15,2013-01-05 15:00:00,
2013-01-05 09:05:00,35.8,28.0,30.34,SSE,160,1.0,3.0,73,0.00,,,0.00,Wunderground v.1.15,2013-01-05 15:05:00,
2013-01-05 09:10:00,36.0,27.8,30.34,South,191,1.0,1.0,72,0.00,,,0.00,Wunderground v.1.15,2013-01-05 15:10:00,
2013-01-05 09:15:00,36.2,28.4,30.34,SE,140,2.0,3.0,73,0.00,,,0.00,Wunderground v.1.15,2013-01-05 15:15:00,
2013-01-05 09:20:00,36.0,28.2,30.34,SSW,207,2.0,2.0,73,0.00,,,0.00,Wunderground v.1.15,2013-01-05 15:20:00,
2013-01-05 09:26:00,35.9,28.1,30.34,SW,227,2.0,5.0,73,0.00,,,0.00,Wunderground v.1.15,2013-01-05 15:26:00,
2013-01-05 09:31:00,35.8,28.0,30.34,SSW,204,2.0,2.0,73,0.00,,,0.00,Wunderground v.1.15,2013-01-05 15:31:00,
2013-01-05 09:40:00,35.5,28.0,30.34,SSE,162,1.0,2.0,74,0.00,,,0.00,Wunderground v.1.15,2013-01-05 15:40:00,
2013-01-05 09:45:00,35.5,28.0,30.34,SSE,162,1.0,1.0,74,0.00,,,0.00,Wunderground v.1.15,2013-01-05 15:45:00,
2013-01-05 09:50:00,35.5,28.4,30.34,South,173,0.0,1.0,75,0.00,,,0.00,Wunderground v.1.15,2013-01-05 15:50:00,
2013-01-05 09:56:00,35.6,28.5,30.34,South,174,0.0,1.0,75,0.00,,,0.00,Wunderground v.1.15,2013-01-05 15:56:00,
2013-01-05 10:01:00,35.6,28.5,30.34,South,174,1.0,1.0,75,0.00,,,0.00,Wunderground v.1.15,2013-01-05 16:01:00,
2013-01-05 10:10:00,35.8,28.6,30.34,South,176,1.0,1.0,75,0.00,,,0.00,Wunderground v.1.15,2013-01-05 16:10:00,
2013-01-05 10:15:00,35.8,28.6,30.33,South,180,1.0,1.0,75,0.00,,,0.00,Wunderground v.1.15,2013-01-05 16:15:00,
2013-01-05 10:20:00,35.8,28.6,30.33,SSE,161,1.0,1.0,75,0.00,,,0.00,Wunderground v.1.15,2013-01-05 16:20:00,
2013-01-05 10:25:00,35.9,28.4,30.33,SE,127,1.0,2.0,74,0.00,,,0.00,Wunderground v.1.15,2013-01-05 16:25:00,
2013-01-05 10:30:00,36.0,28.5,30.33,South,178,1.0,3.0,74,0.00,,,0.00,Wunderground v.1.15,2013-01-05 16:30:00,
2013-01-05 10:36:00,36.2,28.4,30.33,South,174,1.0,1.0,73,0.00,,,0.00,Wunderground v.1.15,2013-01-05 16:36:00,
2013-01-05 10:45:00,36.6,28.4,30.33,SSW,213,2.0,2.0,72,0.00,,,0.00,Wunderground v.1.15,2013-01-05 16:45:00,
2013-01-05 10:50:00,36.9,29.1,30.33,SSW,196,2.0,2.0,73,0.00,,,0.00,Wunderground v.1.15,2013-01-05 16:50:00,
2013-01-05 10:55:00,37.0,28.8,30.33,SSW,208,2.0,2.0,72,0.00,,,0.00,Wunderground v.1.15,2013-01-05 16:55:00,
2013-01-05 11:00:00,37.0,28.8,30.32,SW,234,2.0,3.0,72,0.00,,,0.00,Wunderground v.1.15,2013-01-05 17:00:00,
2013-01-05 11:06:00,37.0,28.5,30.32,SW,220,2.0,3.0,71,0.00,,,0.00,Wunderground v.1.15,2013-01-05 17:06:00,
2013-01-05 11:11:00,37.2,28.7,30.32,SSW,200,2.0,2.0,71,0.00,,,0.00,Wunderground v.1.15,2013-01-05 17:11:00,
2013-01-05 11:20:00,37.2,28.3,30.31,SSW,196,1.0,3.0,70,0.00,,,0.00,Wunderground v.1.15,2013-01-05 17:20:00,
2013-01-05 11:25:00,37.5,28.9,30.31,WSW,245,1.0,1.0,71,0.00,,,0.00,Wunderground v.1.15,2013-01-05 17:25:00,
2013-01-05 11:30:00,37.5,28.6,30.30,SSW,200,1.0,4.0,70,0.00,,,0.00,Wunderground v.1.15,2013-01-05 17:30:00,
2013-01-05 11:35:00,37.6,28.3,30.30,SW,220,1.0,1.0,69,0.00,,,0.00,Wunderground v.1.15,2013-01-05 17:35:00,
2013-01-05 11:41:00,37.9,29.0,30.30,SSE,163,1.0,1.0,70,0.00,,,0.00,Wunderground v.1.15,2013-01-05 17:41:00,
2013-01-05 11:46:00,38.0,28.7,30.28,SSE,166,1.0,3.0,69,0.00,,,0.00,Wunderground v.1.15,2013-01-05 17:46:00,
2013-01-05 11:55:00,38.6,28.9,30.28,SW,229,2.0,3.0,68,0.00,,,0.00,Wunderground v.1.15,2013-01-05 17:55:00,
2013-01-05 12:00:00,38.8,29.1,30.27,SSE,160,1.0,2.0,68,0.00,,,0.00,Wunderground v.1.15,2013-01-05 18:00:00,
2013-01-05 12:05:00,39.1,29.4,30.27,SSW,212,1.0,2.0,68,0.00,,,0.00,Wunderground v.1.15,2013-01-05 18:05:00,
2013-01-05 12:10:00,39.2,28.8,30.27,SSW,198,2.0,2.0,66,0.00,,,0.00,Wunderground v.1.15,2013-01-05 18:10:00,
2013-01-05 12:16:00,39.3,28.9,30.26,SSW,196,2.0,2.0,66,0.00,,,0.00,Wunderground v.1.15,2013-01-05 18:16:00,
2013-01-05 12:21:00,39.5,29.1,30.26,SSW,198,1.0,2.0,66,0.00,,,0.00,Wunderground v.1.15,2013-01-05 18:21:00,
2013-01-05 12:30:00,40.2,29.4,30.25,SSW,200,2.0,3.0,65,0.00,,,0.00,Wunderground v.1.15,2013-01-05 18:30:00,
2013-01-05 12:35:00,40.9,29.7,30.25,SSE,155,2.0,8.0,64,0.00,,,0.00,Wunderground v.1.15,2013-01-05 18:35:00,
2013-01-05 12:40:00,41.2,29.2,30.25,SW,223,4.0,8.0,62,0.00,,,0.00,Wunderground v.1.15,2013-01-05 18:40:00,
2013-01-05 12:45:00,41.5,29.0,30.23,SSW,205,5.0,5.0,61,0.00,,,0.00,Wunderground v.1.15,2013-01-05 18:45:00,
2013-01-05 12:51:00,41.8,29.3,30.23,South,178,3.0,5.0,61,0.00,,,0.00,Wunderground v.1.15,2013-01-05 18:51:00,
2013-01-05 12:56:00,41.8,29.3,30.23,SW,217,4.0,5.0,61,0.00,,,0.00,Wunderground v.1.15,2013-01-05 18:56:00,
2013-01-05 13:05:00,41.6,29.1,30.23,South,169,3.0,4.0,61,0.00,,,0.00,Wunderground v.1.15,2013-01-05 19:05:00,
2013-01-05 13:10:00,41.6,29.1,30.23,South,180,2.0,2.0,61,0.00,,,0.00,Wunderground v.1.15,2013-01-05 19:10:00,
2013-01-05 13:15:00,41.6,29.1,30.22,WSW,245,3.0,3.0,61,0.00,,,0.00,Wunderground v.1.15,2013-01-05 19:15:00,
2013-01-05 13:20:00,41.6,29.5,30.22,South,190,3.0,3.0,62,0.00,,,0.00,Wunderground v.1.15,2013-01-05 19:20:00,
2013-01-05 13:25:00,41.6,29.5,30.22,South,175,3.0,3.0,62,0.00,,,0.00,Wunderground v.1.15,2013-01-05 19:25:00,
2013-01-05 13:30:00,41.6,29.5,30.22,SW,221,3.0,5.0,62,0.00,,,0.00,Wunderground v.1.15,2013-01-05 19:30:00,
2013-01-05 13:36:00,41.6,29.5,30.22,SE,129,3.0,5.0,62,0.00,,,0.00,Wunderground v.1.15,2013-01-05 19:36:00,
2013-01-05 13:41:00,41.6,29.5,30.22,SW,218,3.0,3.0,62,0.00,,,0.00,Wunderground v.1.15,2013-01-05 19:41:00,
2013-01-05 13:50:00,41.6,29.5,30.21,SW,230,3.0,4.0,62,0.00,,,0.00,Wunderground v.1.15,2013-01-05 19:50:00,
2013-01-05 13:55:00,41.8,29.7,30.21,SSW,205,3.0,3.0,62,0.00,,,0.00,Wunderground v.1.15,2013-01-05 19:55:00,
2013-01-05 14:00:00,41.8,29.7,30.21,SSW,207,2.0,4.0,62,0.00,,,0.00,Wunderground v.1.15,2013-01-05 20:00:00,
2013-01-05 14:05:00,41.6,29.9,30.21,WSW,249,3.0,5.0,63,0.00,,,0.00,Wunderground v.1.15,2013-01-05 20:05:00,
2013-01-05 14:10:00,41.5,29.8,30.21,SSW,206,4.0,4.0,63,0.00,,,0.00,Wunderground v.1.15,2013-01-05 20:10:00,
2013-01-05 14:15:00,41.5,29.8,30.21,SSW,197,4.0,4.0,63,0.00,,,0.00,Wunderground v.1.15,2013-01-05 20:15:00,
2013-01-05 14:20:00,41.5,29.8,30.21,SW,215,3.0,3.0,63,0.00,,,0.00,Wunderground v.1.15,2013-01-05 20:20:00,
2013-01-05 14:26:00,41.5,29.8,30.21,WSW,238,3.0,5.0,63,0.00,,,0.00,Wunderground v.1.15,2013-01-05 20:26:00,
2013-01-05 14:31:00,41.5,30.2,30.21,SSW,203,4.0,4.0,64,0.00,,,0.00,Wunderground v.1.15,2013-01-05 20:31:00,
2013-01-05 14:40:00,41.6,29.9,30.21,SSW,207,2.0,8.0,63,0.00,,,0.00,Wunderground v.1.15,2013-01-05 20:40:00,
2013-01-05 14:45:00,41.6,30.3,30.20,SSW,202,2.0,2.0,64,0.00,,,0.00,Wunderground v.1.15,2013-01-05 20:45:00,
2013-01-05 14:50:00,41.6,30.3,30.20,South,179,2.0,2.0,64,0.00,,,0.00,Wunderground v.1.15,2013-01-05 20:50:00,
2013-01-05 14:56:00,41.5,30.6,30.20,SSW,200,3.0,3.0,65,0.00,,,0.00,Wunderground v.1.15,2013-01-05 20:56:00,
2013-01-05 15:01:00,41.5,30.6,30.21,South,182,2.0,2.0,65,0.00,,,0.00,Wunderground v.1.15,2013-01-05 21:01:00,
2013-01-05 15:06:00,41.3,30.4,30.21,SW,234,1.0,7.0,65,0.00,,,0.00,Wunderground v.1.15,2013-01-05 21:06:00,
2013-01-05 15:15:00,41.5,31.0,30.21,SW,226,2.0,2.0,66,0.00,,,0.00,Wunderground v.1.15,2013-01-05 21:15:00,
2013-01-05 15:20:00,41.5,31.0,30.21,SSW,192,2.0,2.0,66,0.00,,,0.00,Wunderground v.1.15,2013-01-05 21:20:00,
2013-01-05 15:25:00,41.5,31.0,30.21,South,189,2.0,4.0,66,0.00,,,0.00,Wunderground v.1.15,2013-01-05 21:25:00,
2013-01-05 15:30:00,41.5,31.0,30.21,SSW,196,3.0,4.0,66,0.00,,,0.00,Wunderground v.1.15,2013-01-05 21:30:00,
2013-01-05 15:36:00,41.6,31.4,30.21,SW,221,3.0,3.0,67,0.00,,,0.00,Wunderground v.1.15,2013-01-05 21:36:00,
2013-01-05 15:41:00,41.6,31.4,30.21,SSW,201,2.0,3.0,67,0.00,,,0.00,Wunderground v.1.15,2013-01-05 21:41:00,
2013-01-05 15:46:00,41.6,31.4,30.21,WSW,240,2.0,2.0,67,0.00,,,0.00,Wunderground v.1.15,2013-01-05 21:46:00,
2013-01-05 15:55:00,41.6,31.4,30.21,SE,126,2.0,3.0,67,0.00,,,0.00,Wunderground v.1.15,2013-01-05 21:55:00,
2013-01-05 16:00:00,41.6,31.4,30.20,SE,138,2.0,2.0,67,0.00,,,0.00,Wunderground v.1.15,2013-01-05 22:00:00,
2013-01-05 16:05:00,41.6,31.4,30.20,SW,218,2.0,2.0,67,0.00,,,0.00,Wunderground v.1.15,2013-01-05 22:05:00,
2013-01-05 16:10:00,41.5,31.7,30.20,SW,232,2.0,2.0,68,0.00,,,0.00,Wunderground v.1.15,2013-01-05 22:10:00,
2013-01-05 16:15:00,41.5,31.7,30.20,SW,218,1.0,5.0,68,0.00,,,0.00,Wunderground v.1.15,2013-01-05 22:15:00,
2013-01-05 16:21:00,41.5,31.7,30.20,SSE,159,2.0,2.0,68,0.00,,,0.00,Wunderground v.1.15,2013-01-05 22:21:00,
2013-01-05 16:26:00,41.3,31.5,30.20,SW,218,2.0,3.0,68,0.00,,,0.00,Wunderground v.1.15,2013-01-05 22:26:00,
2013-01-05 16:31:00,41.2,31.4,30.19,South,185,2.0,2.0,68,0.00,,,0.00,Wunderground v.1.15,2013-01-05 22:31:00,
2013-01-05 16:40:00,41.1,31.7,30.19,SSW,192,2.0,3.0,69,0.00,,,0.00,Wunderground v.1.15,2013-01-05 22:40:00,
2013-01-05 16:45:00,41.1,31.7,30.21,WSW,238,2.0,2.0,69,0.00,,,0.00,Wunderground v.1.15,2013-01-05 22:45:00,
2013-01-05 16:51:00,40.9,31.5,30.21,SSW,200,2.0,2.0,69,0.00,,,0.00,Wunderground v.1.15,2013-01-05 22:51:00,
2013-01-05 16:56:00,40.9,31.5,30.21,South,182,2.0,2.0,69,0.00,,,0.00,Wunderground v.1.15,2013-01-05 22:56:00,
2013-01-05 17:05:00,40.9,31.5,30.21,South,182,2.0,3.0,69,0.00,,,0.00,Wunderground v.1.15,2013-01-05 23:05:00,
2013-01-05 17:10:00,40.8,31.4,30.21,SSW,207,2.0,2.0,69,0.00,,,0.00,Wunderground v.1.15,2013-01-05 23:10:00,
2013-01-05 17:16:00,40.6,31.2,30.22,SSW,206,1.0,2.0,69,0.00,,,0.00,Wunderground v.1.15,2013-01-05 23:16:00,
2013-01-05 17:21:00,40.6,31.2,30.22,SW,229,1.0,1.0,69,0.00,,,0.00,Wunderground v.1.15,2013-01-05 23:21:00,
2013-01-05 17:30:00,40.5,31.5,30.22,WSW,238,1.0,2.0,70,0.00,,,0.00,Wunderground v.1.15,2013-01-05 23:30:00,
2013-01-05 17:35:00,40.5,31.5,30.22,SSW,197,1.0,1.0,70,0.00,,,0.00,Wunderground v.1.15,2013-01-05 23:35:00,
2013-01-05 17:40:00,40.5,31.5,30.22,SSW,194,0.0,1.0,70,0.00,,,0.00,Wunderground v.1.15,2013-01-05 23:40:00,
2013-01-05 17:45:00,40.5,31.5,30.23,SW,224,1.0,3.0,70,0.00,,,0.00,Wunderground v.1.15,2013-01-05 23:45:00,
2013-01-05 17:51:00,40.5,31.5,30.23,WSW,248,1.0,3.0,70,0.00,,,0.00,Wunderground v.1.15,2013-01-05 23:51:00,
2013-01-05 18:00:00,40.3,31.6,30.23,WSW,242,0.0,0.0,71,0.00,,,0.00,Wunderground v.1.15,2013-01-06 00:00:00,
2013-01-05 18:05:00,40.3,31.6,30.23,WSW,246,1.0,1.0,71,0.00,,,0.00,Wunderground v.1.15,2013-01-06 00:05:00,
2013-01-05 18:10:00,40.2,31.5,30.23,SSE,161,0.0,0.0,71,0.00,,,0.00,Wunderground v.1.15,2013-01-06 00:10:00,
2013-01-05 18:15:00,40.1,31.4,30.23,SSE,163,0.0,2.0,71,0.00,,,0.00,Wunderground v.1.15,2013-01-06 00:15:00,
2013-01-05 18:25:00,39.8,31.5,30.23,WNW,283,0.0,0.0,72,0.00,,,0.00,Wunderground v.1.15,2013-01-06 00:25:00,
2013-01-05 18:30:00,39.6,31.3,30.23,WNW,283,0.0,0.0,72,0.00,,,0.00,Wunderground v.1.15,2013-01-06 00:30:00,
2013-01-05 18:35:00,39.5,31.2,30.23,WNW,283,0.0,0.0,72,0.00,,,0.00,Wunderground v.1.15,2013-01-06 00:35:00,
2013-01-05 18:40:00,39.2,31.3,30.23,WNW,283,0.0,0.0,73,0.00,,,0.00,Wunderground v.1.15,2013-01-06 00:40:00,
2013-01-05 18:46:00,38.9,31.3,30.24,WNW,283,0.0,0.0,74,0.00,,,0.00,Wunderground v.1.15,2013-01-06 00:46:00,
2013-01-05 18:51:00,38.8,31.2,30.24,WSW,256,0.0,0.0,74,0.00,,,0.00,Wunderground v.1.15,2013-01-06 00:51:00,
2013-01-05 19:00:00,38.6,31.4,30.24,WSW,256,0.0,0.0,75,0.00,,,0.00,Wunderground v.1.15,2013-01-06 01:00:00,
2013-01-05 19:05:00,38.6,31.4,30.24,WSW,256,0.0,0.0,75,0.00,,,0.00,Wunderground v.1.15,2013-01-06 01:05:00,
2013-01-05 19:11:00,38.6,31.4,30.24,WSW,250,0.0,1.0,75,0.00,,,0.00,Wunderground v.1.15,2013-01-06 01:11:00,
2013-01-05 19:16:00,38.8,31.6,30.24,WSW,250,0.0,1.0,75,0.00,,,0.00,Wunderground v.1.15,2013-01-06 01:16:00,
2013-01-05 19:25:00,38.6,31.7,30.24,WSW,250,0.0,2.0,76,0.00,,,0.00,Wunderground v.1.15,2013-01-06 01:25:00,
2013-01-05 19:30:00,38.6,31.7,30.24,WSW,250,0.0,2.0,76,0.00,,,0.00,Wunderground v.1.15,2013-01-06 01:30:00,
2013-01-05 19:35:00,38.6,31.7,30.24,WSW,246,0.0,0.0,76,0.00,,,0.00,Wunderground v.1.15,2013-01-06 01:35:00,
2013-01-05 19:40:00,38.8,31.6,30.24,WSW,246,0.0,0.0,75,0.00,,,0.00,Wunderground v.1.15,2013-01-06 01:40:00,
2013-01-05 19:45:00,38.6,31.4,30.24,WSW,246,0.0,0.0,75,0.00,,,0.00,Wunderground v.1.15,2013-01-06 01:45:00,
2013-01-05 19:51:00,38.3,31.4,30.24,WSW,246,0.0,0.0,76,0.00,,,0.00,Wunderground v.1.15,2013-01-06 01:51:00,
2013-01-05 20:00:00,37.5,30.6,30.24,WSW,246,0.0,0.0,76,0.00,,,0.00,Wunderground v.1.15,2013-01-06 02:00:00,
2013-01-05 20:05:00,36.8,29.9,30.24,WSW,246,0.0,0.0,76,0.00,,,0.00,Wunderground v.1.15,2013-01-06 02:05:00,
2013-01-05 20:10:00,35.9,29.1,30.24,WSW,246,0.0,0.0,76,0.00,,,0.00,Wunderground v.1.15,2013-01-06 02:10:00,
2013-01-05 20:15:00,34.9,28.7,30.23,WSW,246,0.0,0.0,78,0.00,,,0.00,Wunderground v.1.15,2013-01-06 02:15:00,
2013-01-05 20:21:00,34.1,28.3,30.23,WSW,246,0.0,0.0,79,0.00,,,0.00,Wunderground v.1.15,2013-01-06 02:21:00,
2013-01-05 20:26:00,33.2,27.4,30.23,WSW,246,0.0,0.0,79,0.00,,,0.00,Wunderground v.1.15,2013-01-06 02:26:00,
2013-01-05 20:35:00,32.2,27.0,30.23,WSW,246,0.0,0.0,81,0.00,,,0.00,Wunderground v.1.15,2013-01-06 02:35:00,
2013-01-05 20:40:00,31.8,26.9,30.23,WSW,246,0.0,0.0,82,0.00,,,0.00,Wunderground v.1.15,2013-01-06 02:40:00,
2013-01-05 20:45:00,31.3,26.4,30.24,WSW,246,0.0,0.0,82,0.00,,,0.00,Wunderground v.1.15,2013-01-06 02:45:00,
2013-01-05 20:51:00,31.0,26.4,30.24,WSW,246,0.0,0.0,83,0.00,,,0.00,Wunderground v.1.15,2013-01-06 02:51:00,
2013-01-05 20:56:00,30.6,26.1,30.24,WSW,246,0.0,0.0,83,0.00,,,0.00,Wunderground v.1.15,2013-01-06 02:56:00,
2013-01-05 21:05:00,30.3,26.3,30.24,WSW,246,0.0,0.0,85,0.00,,,0.00,Wunderground v.1.15,2013-01-06 03:05:00,
2013-01-05 21:10:00,30.1,26.4,30.24,WSW,246,0.0,0.0,86,0.00,,,0.00,Wunderground v.1.15,2013-01-06 03:10:00,
2013-01-05 21:16:00,29.8,26.1,30.25,WSW,246,0.0,0.0,86,0.00,,,0.00,Wunderground v.1.15,2013-01-06 03:16:00,
2013-01-05 21:21:00,29.7,26.0,30.25,WSW,246,0.0,0.0,86,0.00,,,0.00,Wunderground v.1.15,2013-01-06 03:21:00,
2013-01-05 21:30:00,29.5,26.1,30.24,WSW,246,0.0,0.0,87,0.00,,,0.00,Wunderground v.1.15,2013-01-06 03:30:00,
2013-01-05 21:35:00,29.4,26.0,30.24,WSW,245,0.0,0.0,87,0.00,,,0.00,Wunderground v.1.15,2013-01-06 03:35:00,
2013-01-05 21:41:00,29.4,26.3,30.24,WSW,245,0.0,0.0,88,0.00,,,0.00,Wunderground v.1.15,2013-01-06 03:41:00,
2013-01-05 21:46:00,29.4,26.3,30.25,WSW,245,0.0,0.0,88,0.00,,,0.00,Wunderground v.1.15,2013-01-06 03:46:00,
2013-01-05 21:55:00,29.4,26.3,30.25,WSW,245,0.0,0.0,88,0.00,,,0.00,Wunderground v.1.15,2013-01-06 03:55:00,
2013-01-05 22:00:00,29.5,26.7,30.25,WSW,245,0.0,0.0,89,0.00,,,0.00,Wunderground v.1.15,2013-01-06 04:00:00,
2013-01-05 22:06:00,29.5,26.7,30.25,WSW,245,0.0,0.0,89,0.00,,,0.00,Wunderground v.1.15,2013-01-06 04:06:00,
2013-01-05 22:11:00,29.7,26.9,30.25,WSW,245,0.0,0.0,89,0.00,,,0.00,Wunderground v.1.15,2013-01-06 04:11:00,
2013-01-05 22:20:00,29.5,26.7,30.24,WSW,245,0.0,0.0,89,0.00,,,0.00,Wunderground v.1.15,2013-01-06 04:20:00,
2013-01-05 22:25:00,29.5,26.7,30.24,WSW,245,0.0,0.0,89,0.00,,,0.00,Wunderground v.1.15,2013-01-06 04:25:00,
2013-01-05 22:30:00,29.5,26.9,30.25,WSW,245,0.0,0.0,90,0.00,,,0.00,Wunderground v.1.15,2013-01-06 04:30:00,
2013-01-05 22:36:00,29.5,26.7,30.25,WSW,245,0.0,0.0,89,0.00,,,0.00,Wunderground v.1.15,2013-01-06 04:36:00,
2013-01-05 22:45:00,29.7,27.1,30.24,WSW,238,0.0,0.0,90,0.00,,,0.00,Wunderground v.1.15,2013-01-06 04:45:00,
2013-01-05 22:50:00,29.7,27.1,30.24,WSW,238,0.0,0.0,90,0.00,,,0.00,Wunderground v.1.15,2013-01-06 04:50:00,
2013-01-05 22:55:00,29.5,26.9,30.24,WSW,238,0.0,0.0,90,0.00,,,0.00,Wunderground v.1.15,2013-01-06 04:55:00,
2013-01-05 23:01:00,29.5,26.9,30.24,WSW,253,0.0,0.0,90,0.00,,,0.00,Wunderground v.1.15,2013-01-06 05:01:00,
2013-01-05 23:05:00,29.8,27.2,30.24,WSW,246,0.0,0.0,90,0.00,,,0.00,Wunderground v.1.15,2013-01-06 05:05:00,
2013-01-05 23:10:00,30.3,28.0,30.24,South,189,0.0,0.0,91,0.00,,,0.00,Wunderground v.1.15,2013-01-06 05:10:00,
2013-01-05 23:15:00,30.7,28.4,30.24,SSE,167,0.0,0.0,91,0.00,,,0.00,Wunderground v.1.15,2013-01-06 05:15:00,
2013-01-05 23:20:00,31.2,28.9,30.24,South,174,0.0,0.0,91,0.00,,,0.00,Wunderground v.1.15,2013-01-06 05:20:00,
2013-01-05 23:26:00,31.6,29.3,30.24,WSW,252,0.0,0.0,91,0.00,,,0.00,Wunderground v.1.15,2013-01-06 05:26:00,
2013-01-05 23:30:00,31.8,29.5,30.23,WSW,251,0.0,1.0,91,0.00,,,0.00,Wunderground v.1.15,2013-01-06 05:30:00,
2013-01-05 23:35:00,32.2,29.9,30.23,WSW,254,0.0,1.0,91,0.00,,,0.00,Wunderground v.1.15,2013-01-06 05:35:00,
2013-01-05 23:40:00,32.5,30.2,30.23,SSW,201,1.0,1.0,91,0.00,,,0.00,Wunderground v.1.15,2013-01-06 05:40:00,
2013-01-05 23:45:00,32.9,30.6,30.23,SSE,150,0.0,1.0,91,0.00,,,0.00,Wunderground v.1.15,2013-01-06 05:45:00,
2013-01-05 23:51:00,33.1,30.5,30.23,WSW,249,0.0,0.0,90,0.00,,,0.00,Wunderground v.1.15,2013-01-06 05:51:00,